Detall de PIREP

Printer-friendly versionPDF version

[2014/03/11 09:32:00]
Flight IATA:CT2104
Pilot Number:041
Company ICAO:CAT
Aircraft Type:AT72/F
PAX:49
Departing Airport: LEVC
Destination Airport: LEBB
Alternate Airport:LEBL
Online: VATSIM
Route:CENTA A33 CJN R10 PPN G23 CEGAM
Flight Level:FL190
No Slew and time accel
No pause
Crash detect
Detect pilot in Cockpit between each 30 and 45 minutes
09:32 Zero fuel Weight: 38957 Lbs, Fuel Weight: 4367 Lbs
09:32 VATSIM:LEVC 110900Z VRB02KT CAVOK 14/M02 Q1021 NOSIG
09:32 VATSIM:LEBB 110900Z 00000KT 9000 FEW012 SCT017 11/08 Q1024 NOSIG
09:32 VOICE CATALONIAN
09:41 Parking Brakes off
09:46 Take-off
09:46 Take off Weight: 43257 Lbs
09:46 Wind: 359º @ 002 Knots Heading: 295º
09:46 POS N39º 29´ 19´´ W000º 28´ 48´´
09:46 Gear Up: 137 Knots
09:46 Flaps:1 at 137 Knots
09:46 Flaps:0 at 157 Knots
10:00 TOC
10:00 Fuel Weight: 3791 Lb
10:01 Wind:317º@018 Knots Heading: 300º Ground Speed: 235 Knots Altitude 19150 ft
10:11 TOD
10:11 Fuel Weight: 3487 Lb
10:16 Wind:176º@017 Knots Heading: 356º Ground Speed: 296 Knots Altitude 18225 ft
10:31 Wind:289º@017 Knots Heading: 022º Ground Speed: 282 Knots Altitude 18277 ft
10:46 Wind:322º@008 Knots Heading: 303º Ground Speed: 262 Knots Altitude 9685 ft
10:55 Flaps:1 at 171 Knots
10:56 Flaps:2 at 136 Knots
10:59 Gear Down: 123 Knots
11:01 Wind:353º@000 Knots Heading: 294º Ground Speed: 119 Knots Altitude 616 ft
11:02 TouchDown:Rate -101 ft/min Speed: 105 Knots
11:02 VATSIM:LEBB 111030Z 00000KT 9000 FEW017 14/09 Q1025 NOSIG
11:02 Land
11:02 Wind:354º@000 Knots
11:02 Heading: 299º
11:02 Flight Duration: 01:16
11:02 Landing Weight: 41250 Lbs
11:02 POS N43º 18´ 10´´ W002º 54´ 56´´
11:05 Parking brakes on
11:05 Block to Block Duration: 01:24
11:05 Final Fuel: 2268 Lbls
11:05 Spent Fuel: 2098Lbls
11:05 Flight Length: 322 NM
11:05 TOD Land Length: 218 NM

Exportar CSV

Powered by Drupal - Modified by Danger4k